createdAt,value
2022-12-06T00:00:11.699Z,24.10
2022-12-06T00:01:16.241Z,23.23
2022-12-06T00:02:18.945Z,24.33
2022-12-06T00:03:20.672Z,21.25
2022-12-06T00:04:24.688Z,26.00
2022-12-06T00:05:26.471Z,28.20
2022-12-06T00:06:31.768Z,23.48
2022-12-06T00:07:33.482Z,26.45
2022-12-06T00:08:37.330Z,25.60
2022-12-06T00:09:39.007Z,23.83
2022-12-06T00:10:41.675Z,25.45
2022-12-06T00:11:43.374Z,21.02
2022-12-06T00:12:45.980Z,23.88
2022-12-06T00:13:48.564Z,23.20
2022-12-06T00:14:51.164Z,22.30
2022-12-06T00:15:52.792Z,20.85
2022-12-06T00:16:55.540Z,21.65
2022-12-06T00:17:57.245Z,24.13
2022-12-06T00:19:00.660Z,20.20
2022-12-06T00:20:04.294Z,21.42
2022-12-06T00:21:08.865Z,22.40
2022-12-06T00:22:11.771Z,25.67
2022-12-06T00:23:17.616Z,23.45
2022-12-06T00:24:22.769Z,23.90
2022-12-06T00:25:24.351Z,25.30
2022-12-06T00:26:27.598Z,20.15
2022-12-06T00:27:29.254Z,24.58
2022-12-06T00:28:31.922Z,26.77
2022-12-06T00:29:34.749Z,23.42
2022-12-06T00:30:36.382Z,26.58
2022-12-06T00:31:39.175Z,25.48
2022-12-06T00:32:40.914Z,22.83
2022-12-06T00:33:44.060Z,25.00
2022-12-06T00:34:46.151Z,24.42
2022-12-06T00:35:57.203Z,28.13
2022-12-06T00:37:00.371Z,23.33
2022-12-06T00:38:02.388Z,21.77
2022-12-06T00:39:07.239Z,24.23
2022-12-06T00:40:09.621Z,26.13
2022-12-06T00:41:14.149Z,27.75
2022-12-06T00:42:15.804Z,24.35
2022-12-06T00:43:18.443Z,21.33
2022-12-06T00:44:31.070Z,25.45
2022-12-06T00:45:32.855Z,24.13
2022-12-06T00:46:38.972Z,27.23
2022-12-06T00:47:40.816Z,23.40
2022-12-06T00:48:43.687Z,19.40
2022-12-06T00:49:45.291Z,25.77
2022-12-06T00:50:48.202Z,27.55
2022-12-06T00:51:51.243Z,21.92
2022-12-06T00:52:53.840Z,23.42
2022-12-06T00:53:55.678Z,28.27
2022-12-06T00:54:58.303Z,22.65
2022-12-06T00:56:00.050Z,23.42
2022-12-06T00:57:02.687Z,24.60
2022-12-06T00:58:04.365Z,25.67
2022-12-06T00:59:07.178Z,24.17
2022-12-06T01:00:10.116Z,24.77
2022-12-06T01:01:15.545Z,28.55
2022-12-06T01:02:17.321Z,25.98
2022-12-06T01:03:20.361Z,21.10
2022-12-06T01:04:22.017Z,24.63
2022-12-06T01:05:25.036Z,28.30
2022-12-06T01:06:28.617Z,24.73
2022-12-06T01:07:32.696Z,22.90
2022-12-06T01:08:35.788Z,23.20
2022-12-06T01:09:38.403Z,22.38
2022-12-06T01:10:40.446Z,22.05
2022-12-06T01:11:42.953Z,22.90
2022-12-06T01:12:44.831Z,20.98
2022-12-06T01:13:47.493Z,30.50
2022-12-06T01:14:48.988Z,30.17
2022-12-06T01:15:51.795Z,23.63
2022-12-06T01:16:54.647Z,23.75
2022-12-06T01:17:56.201Z,30.10
2022-12-06T01:19:01.883Z,29.92
2022-12-06T01:20:04.746Z,24.05
2022-12-06T01:21:07.985Z,24.23
2022-12-06T01:22:09.474Z,21.25
2022-12-06T01:23:13.368Z,28.08
2022-12-06T01:24:14.934Z,27.00
2022-12-06T01:25:17.514Z,23.55
2022-12-06T01:26:21.501Z,25.80
2022-12-06T01:27:24.072Z,31.38
2022-12-06T01:28:25.628Z,28.65
2022-12-06T01:29:28.120Z,28.98
2022-12-06T01:30:29.898Z,27.90
2022-12-06T01:31:38.212Z,26.67
2022-12-06T01:32:40.464Z,26.52
2022-12-06T01:33:43.531Z,27.85
2022-12-06T01:34:45.304Z,26.45
2022-12-06T01:35:47.786Z,31.55
2022-12-06T01:36:49.871Z,26.83
2022-12-06T01:37:52.383Z,29.85
2022-12-06T01:38:57.901Z,30.95
2022-12-06T01:40:00.953Z,24.20
2022-12-06T01:41:02.679Z,32.35
2022-12-06T01:42:05.680Z,26.38
2022-12-06T01:43:34.078Z,32.35
2022-12-06T01:44:40.979Z,26.35
2022-12-06T01:45:43.032Z,23.55
2022-12-06T01:46:46.159Z,28.98
2022-12-06T01:47:47.735Z,28.67
2022-12-06T01:48:54.381Z,25.33
2022-12-06T01:50:00.149Z,26.67
2022-12-06T01:51:04.154Z,26.50
2022-12-06T01:52:10.754Z,26.73
2022-12-06T01:53:15.487Z,25.10
2022-12-06T01:54:20.997Z,28.20
2022-12-06T01:55:27.052Z,25.05
2022-12-06T01:56:29.025Z,27.73
2022-12-06T01:57:31.791Z,26.10
2022-12-06T01:58:38.019Z,30.02
2022-12-06T01:59:41.238Z,27.45
2022-12-06T02:00:42.734Z,29.80
2022-12-06T02:01:46.954Z,31.02
2022-12-06T02:02:48.746Z,32.13
2022-12-06T02:03:53.479Z,29.65
2022-12-06T02:04:57.776Z,26.15
2022-12-06T02:06:04.241Z,26.88
2022-12-06T02:07:07.662Z,30.77
2022-12-06T02:08:10.674Z,27.63
2022-12-06T02:09:14.551Z,29.95
2022-12-06T02:10:18.198Z,27.52
2022-12-06T02:11:20.741Z,33.92
2022-12-06T02:12:22.359Z,26.40
2022-12-06T02:13:26.221Z,35.65
2022-12-06T02:14:32.789Z,27.98
2022-12-06T02:15:44.830Z,30.30
2022-12-06T02:16:57.617Z,29.33
2022-12-06T02:18:07.094Z,29.50
2022-12-06T02:19:24.268Z,30.48
2022-12-06T02:20:33.383Z,30.42
2022-12-06T02:21:43.836Z,27.95
2022-12-06T02:23:17.840Z,30.88
2022-12-06T02:24:40.012Z,35.00
2022-12-06T02:26:03.831Z,31.92
2022-12-06T02:27:33.356Z,33.17
2022-12-06T02:29:10.485Z,37.10
2022-12-06T02:30:18.551Z,27.20
2022-12-06T02:31:26.572Z,28.25
2022-12-06T02:32:35.803Z,31.83
2022-12-06T02:33:43.786Z,31.83
2022-12-06T02:34:55.371Z,29.73
2022-12-06T02:36:04.869Z,29.67
2022-12-06T02:37:12.358Z,30.10
2022-12-06T02:38:17.532Z,29.33
2022-12-06T02:39:27.101Z,27.45
2022-12-06T02:40:35.664Z,28.65
2022-12-06T02:41:42.739Z,28.90
2022-12-06T02:42:50.486Z,30.63
2022-12-06T02:43:58.601Z,26.15
2022-12-06T02:45:05.295Z,26.90
2022-12-06T02:46:09.198Z,28.08
2022-12-06T02:47:16.418Z,25.95
2022-12-06T02:48:20.748Z,31.08
2022-12-06T02:49:26.452Z,31.52
2022-12-06T02:50:32.973Z,30.08
2022-12-06T02:51:37.127Z,28.45
2022-12-06T02:52:44.089Z,40.30
2022-12-06T02:53:50.210Z,29.33
2022-12-06T02:54:56.592Z,29.65
2022-12-06T02:55:59.153Z,27.55
2022-12-06T02:57:01.637Z,31.13
2022-12-06T02:58:03.208Z,29.67
2022-12-06T02:59:05.984Z,27.45
2022-12-06T03:00:36.136Z,28.75
2022-12-06T03:01:43.353Z,26.85
2022-12-06T03:02:46.779Z,24.40
2022-12-06T03:04:02.061Z,27.27
2022-12-06T03:05:15.809Z,28.67
2022-12-06T03:11:02.644Z,31.15
2022-12-06T03:12:08.266Z,31.05
2022-12-06T03:13:17.330Z,31.13
2022-12-06T03:14:22.139Z,28.20
2022-12-06T03:15:34.419Z,25.45
2022-12-06T03:16:47.020Z,30.48
2022-12-06T03:17:55.381Z,29.65
2022-12-06T03:19:00.983Z,30.05
2022-12-06T03:20:09.649Z,27.95
2022-12-06T03:21:15.064Z,30.85
2022-12-06T03:22:24.106Z,28.55
2022-12-06T03:23:30.285Z,29.33
2022-12-06T03:24:37.010Z,36.50
2022-12-06T03:25:39.477Z,22.95
2022-12-06T03:26:44.976Z,28.15
2022-12-06T03:27:48.561Z,31.83
2022-12-06T03:28:56.197Z,31.05
2022-12-06T03:30:01.649Z,32.38
2022-12-06T03:31:10.670Z,34.50
2022-12-06T03:32:16.223Z,28.92
2022-12-06T03:33:23.767Z,26.92
2022-12-06T03:34:29.703Z,29.20
2022-12-06T03:35:35.255Z,31.67
2022-12-06T03:36:39.559Z,25.25
2022-12-06T03:37:47.239Z,30.38
2022-12-06T03:38:53.105Z,27.70
2022-12-06T03:40:04.188Z,23.42
2022-12-06T03:41:07.725Z,29.83
2022-12-06T03:42:11.209Z,29.33
2022-12-06T03:43:12.870Z,31.33
2022-12-06T03:44:15.596Z,32.45
2022-12-06T03:45:17.793Z,29.48
2022-12-06T03:46:27.648Z,30.85
2022-12-06T03:47:35.107Z,27.85
2022-12-06T03:48:43.633Z,29.52
2022-12-06T03:49:48.384Z,32.33
2022-12-06T03:50:58.679Z,30.02
2022-12-06T03:52:01.831Z,30.70
2022-12-06T03:53:04.548Z,25.63
2022-12-06T03:54:07.911Z,27.83
2022-12-06T03:55:10.830Z,30.60
2022-12-06T03:56:12.367Z,30.42
2022-12-06T03:57:15.192Z,32.47
2022-12-06T03:58:16.766Z,31.23
2022-12-06T03:59:19.337Z,27.98
2022-12-06T04:00:21.313Z,31.60
2022-12-06T04:01:23.896Z,27.05
2022-12-06T04:02:25.774Z,33.05
2022-12-06T04:03:28.294Z,33.65
2022-12-06T04:04:31.263Z,28.98
2022-12-06T04:05:33.781Z,30.98
2022-12-06T04:06:35.567Z,36.88
2022-12-06T04:07:38.476Z,29.80
2022-12-06T04:08:41.622Z,31.02
2022-12-06T04:10:02.688Z,32.65
2022-12-06T04:11:06.745Z,32.72
2022-12-06T04:12:28.334Z,29.15
2022-12-06T04:13:31.101Z,33.72
2022-12-06T04:14:39.105Z,35.80
2022-12-06T04:15:41.694Z,30.85
2022-12-06T04:17:01.813Z,33.15
2022-12-06T04:18:11.465Z,28.58
2022-12-06T04:19:12.964Z,32.38
2022-12-06T04:20:16.825Z,27.25
2022-12-06T04:21:37.019Z,30.95
2022-12-06T04:22:56.984Z,30.83
2022-12-06T04:24:02.628Z,29.00
2022-12-06T04:25:04.556Z,27.33
2022-12-06T04:26:09.727Z,28.02
2022-12-06T04:27:30.108Z,30.08
2022-12-06T04:28:50.360Z,28.13
2022-12-06T04:30:10.558Z,32.85
2022-12-06T04:31:30.884Z,32.78
2022-12-06T04:32:51.288Z,27.00
2022-12-06T04:34:11.453Z,31.92
2022-12-06T04:35:31.694Z,29.60
2022-12-06T04:36:53.220Z,30.88
2022-12-06T04:38:15.451Z,34.55
2022-12-06T04:39:20.950Z,33.63
2022-12-06T04:40:22.835Z,26.33
2022-12-06T04:41:42.827Z,29.17
2022-12-06T04:43:03.024Z,30.65
2022-12-06T04:44:07.053Z,29.88
2022-12-06T04:45:10.246Z,27.88
2022-12-06T04:46:14.125Z,31.52
2022-12-06T04:47:17.036Z,25.65
2022-12-06T04:48:18.633Z,25.65
2022-12-06T04:49:21.236Z,26.38
2022-12-06T04:50:23.696Z,30.85
2022-12-06T04:51:25.526Z,27.45
2022-12-06T04:52:34.203Z,27.90
2022-12-06T04:53:37.601Z,28.08
2022-12-06T04:54:40.630Z,33.83
2022-12-06T04:55:45.464Z,32.60
2022-12-06T04:56:48.083Z,29.48
2022-12-06T04:57:50.908Z,30.00
2022-12-06T04:58:52.436Z,27.63
2022-12-06T04:59:55.135Z,21.08
2022-12-06T05:00:56.780Z,26.45
2022-12-06T05:01:59.282Z,25.45
2022-12-06T05:03:00.800Z,28.00
2022-12-06T05:04:03.298Z,23.30
2022-12-06T05:05:05.742Z,29.45
2022-12-06T05:06:08.997Z,23.27
2022-12-06T05:07:11.551Z,21.52
2022-12-06T05:08:15.494Z,25.40
2022-12-06T05:09:17.096Z,23.80
2022-12-06T05:10:19.798Z,27.92
2022-12-06T05:11:21.498Z,24.88
2022-12-06T05:12:24.777Z,31.35
2022-12-06T05:13:26.305Z,31.25
2022-12-06T05:14:29.395Z,25.17
2022-12-06T05:15:31.429Z,27.98
2022-12-06T05:16:34.043Z,30.25
2022-12-06T05:17:35.690Z,24.98
2022-12-06T05:18:38.320Z,26.23
2022-12-06T05:19:40.875Z,31.65
2022-12-06T05:20:42.389Z,24.20
2022-12-06T05:21:44.894Z,30.75
2022-12-06T05:22:46.990Z,29.75
2022-12-06T05:23:53.230Z,27.75
2022-12-06T05:24:54.848Z,30.17
2022-12-06T05:25:59.629Z,32.40
2022-12-06T05:27:02.601Z,24.35
2022-12-06T05:28:04.504Z,29.00
2022-12-06T05:29:07.053Z,24.83
2022-12-06T05:30:09.698Z,28.33
2022-12-06T05:31:12.622Z,22.38
2022-12-06T05:32:14.285Z,25.45
2022-12-06T05:33:16.752Z,23.75
2022-12-06T05:34:19.253Z,21.30
2022-12-06T05:35:21.016Z,26.73
2022-12-06T05:36:25.998Z,22.40
2022-12-06T05:37:27.520Z,32.42
2022-12-06T05:38:30.000Z,27.52
2022-12-06T05:39:34.021Z,21.88
2022-12-06T05:40:35.557Z,28.02
2022-12-06T05:41:38.069Z,25.42
2022-12-06T05:42:40.262Z,28.00
2022-12-06T05:43:43.020Z,24.83
2022-12-06T05:44:44.763Z,24.83
2022-12-06T05:45:47.322Z,27.35
2022-12-06T05:46:48.857Z,22.33
2022-12-06T05:47:51.353Z,23.42
2022-12-06T05:48:52.851Z,29.35
2022-12-06T05:49:55.310Z,23.90
2022-12-06T05:50:56.948Z,23.88
2022-12-06T05:52:03.844Z,21.52
2022-12-06T05:53:06.039Z,28.27
2022-12-06T05:54:08.543Z,27.92
2022-12-06T05:55:11.449Z,24.85
2022-12-06T05:56:14.552Z,22.30
2022-12-06T05:57:16.140Z,27.05
2022-12-06T05:58:19.677Z,21.58
2022-12-06T05:59:21.306Z,25.13
2022-12-06T06:00:24.097Z,23.85
2022-12-06T06:01:25.648Z,24.17
2022-12-06T06:02:28.298Z,21.15
2022-12-06T06:03:30.073Z,20.60
2022-12-06T06:04:32.627Z,23.33
2022-12-06T06:05:35.151Z,22.33
2022-12-06T06:06:36.683Z,27.35
2022-12-06T06:07:39.456Z,19.00
2022-12-06T06:08:41.921Z,24.10
2022-12-06T06:09:44.403Z,25.75
2022-12-06T06:10:47.320Z,22.98
2022-12-06T06:11:49.824Z,18.45
2022-12-06T06:12:51.318Z,20.67
2022-12-06T06:13:54.677Z,20.85
2022-12-06T06:14:56.181Z,17.05
2022-12-06T06:15:59.228Z,19.95
2022-12-06T06:17:00.804Z,18.55
2022-12-06T06:18:03.499Z,21.27
2022-12-06T06:19:06.101Z,20.02
2022-12-06T06:20:09.458Z,22.40
2022-12-06T06:21:11.926Z,18.70
2022-12-06T06:22:14.291Z,20.30
2022-12-06T06:23:16.878Z,19.63
2022-12-06T06:24:18.456Z,19.88
2022-12-06T06:25:21.329Z,22.00
2022-12-06T06:26:24.316Z,21.23
2022-12-06T06:27:26.992Z,30.55
2022-12-06T06:28:29.476Z,23.38
2022-12-06T06:29:31.155Z,21.45
2022-12-06T06:30:33.659Z,20.30
2022-12-06T06:31:35.503Z,18.13
2022-12-06T06:32:38.416Z,17.30
2022-12-06T06:33:40.927Z,19.65
2022-12-06T06:34:42.770Z,20.13
2022-12-06T06:35:45.278Z,25.23
2022-12-06T06:36:46.855Z,20.27
2022-12-06T06:37:49.739Z,21.90
2022-12-06T06:38:51.508Z,19.85
2022-12-06T06:39:55.184Z,20.45
2022-12-06T06:40:57.729Z,19.60
2022-12-06T06:42:00.634Z,17.15
2022-12-06T06:43:17.959Z,22.92
2022-12-06T06:44:20.725Z,18.05
2022-12-06T06:45:28.429Z,18.00
2022-12-06T06:46:30.794Z,19.95
2022-12-06T06:47:37.602Z,22.65
2022-12-06T06:48:40.793Z,20.73
2022-12-06T06:49:42.355Z,17.92
2022-12-06T06:50:44.931Z,21.10
2022-12-06T06:51:46.578Z,18.75
2022-12-06T06:52:49.092Z,22.27
2022-12-06T06:53:51.591Z,21.25
2022-12-06T06:54:53.467Z,19.00
2022-12-06T06:55:56.307Z,16.65
2022-12-06T06:56:58.150Z,19.70
2022-12-06T06:58:02.105Z,18.73
2022-12-06T06:59:03.734Z,18.17
2022-12-06T07:00:08.100Z,14.73
2022-12-06T07:01:17.568Z,23.17
2022-12-06T07:02:20.147Z,20.27
2022-12-06T07:03:22.858Z,27.05
2022-12-06T07:04:25.363Z,19.05
2022-12-06T07:05:28.197Z,20.65
2022-12-06T07:06:30.594Z,18.60
2022-12-06T07:07:33.110Z,20.67
2022-12-06T07:08:34.675Z,19.25
2022-12-06T07:09:37.487Z,17.17
2022-12-06T07:10:39.056Z,17.73
2022-12-06T07:11:41.599Z,17.58
2022-12-06T07:12:43.107Z,21.52
2022-12-06T07:13:52.539Z,21.15
2022-12-06T07:14:57.179Z,20.27
2022-12-06T07:15:59.137Z,19.17
2022-12-06T07:17:01.870Z,15.98
2022-12-06T07:18:03.601Z,17.02
2022-12-06T07:19:08.979Z,19.02
2022-12-06T07:20:11.297Z,22.60
2022-12-06T07:21:15.520Z,23.00
2022-12-06T07:22:17.089Z,19.42
2022-12-06T07:23:19.578Z,18.60
2022-12-06T07:24:27.233Z,15.00
2022-12-06T07:25:28.912Z,13.45
2022-12-06T07:26:31.438Z,14.93
2022-12-06T07:27:36.613Z,15.75
2022-12-06T07:28:39.626Z,16.90
2022-12-06T07:29:43.523Z,18.08
2022-12-06T07:30:45.215Z,14.63
2022-12-06T07:31:47.706Z,14.15
2022-12-06T07:32:49.338Z,16.30
2022-12-06T07:33:53.398Z,15.60
2022-12-06T07:34:55.983Z,16.50
2022-12-06T07:36:12.071Z,16.77
2022-12-06T07:37:19.001Z,17.23
2022-12-06T07:38:20.735Z,22.70
2022-12-06T07:39:23.549Z,14.70
2022-12-06T07:40:48.182Z,17.33
2022-12-06T07:42:05.124Z,18.15
2022-12-06T07:43:39.821Z,12.73
2022-12-06T07:45:03.056Z,17.33
2022-12-06T07:46:11.256Z,20.05
2022-12-06T07:47:13.795Z,16.45
2022-12-06T07:48:16.260Z,17.38
2022-12-06T07:49:18.686Z,18.25
2022-12-06T07:50:23.882Z,106.07
2022-12-06T07:51:25.411Z,33.10
2022-12-06T07:52:32.267Z,16.85
2022-12-06T07:53:33.807Z,17.75
2022-12-06T07:54:36.356Z,13.90
2022-12-06T07:55:38.903Z,14.20
2022-12-06T07:56:41.232Z,15.25
2022-12-06T07:57:44.399Z,17.42
2022-12-06T07:58:46.019Z,13.82
2022-12-06T07:59:49.898Z,17.70
2022-12-06T08:00:51.562Z,15.35
2022-12-06T08:01:54.854Z,14.57
2022-12-06T08:02:57.501Z,20.27
2022-12-06T08:03:59.588Z,17.10
2022-12-06T08:05:02.085Z,16.50
2022-12-06T08:06:03.751Z,18.17
2022-12-06T08:07:06.269Z,13.60
2022-12-06T08:08:08.811Z,17.05
2022-12-06T08:09:10.370Z,20.55
2022-12-06T08:10:12.915Z,16.83
2022-12-06T08:11:14.446Z,17.50
2022-12-06T08:12:16.937Z,15.88
2022-12-06T08:13:18.563Z,28.15
2022-12-06T08:14:21.365Z,15.20
2022-12-06T08:15:25.370Z,14.95
2022-12-06T08:16:26.953Z,19.55
2022-12-06T08:17:30.806Z,20.40
2022-12-06T08:18:32.696Z,18.85
2022-12-06T08:19:35.221Z,19.95
2022-12-06T08:20:38.704Z,18.73
2022-12-06T08:21:41.171Z,13.30
2022-12-06T08:22:43.661Z,17.20
2022-12-06T08:23:45.246Z,15.90
2022-12-06T08:24:47.884Z,14.02
2022-12-06T08:25:56.614Z,21.50
2022-12-06T08:27:00.031Z,17.13
2022-12-06T08:28:01.565Z,17.15
2022-12-06T08:29:04.938Z,17.20
2022-12-06T08:30:09.017Z,15.60
2022-12-06T08:31:16.081Z,16.73
2022-12-06T08:32:18.796Z,17.60
2022-12-06T08:33:21.809Z,24.48
2022-12-06T08:34:24.282Z,16.98
2022-12-06T08:35:25.837Z,13.25
2022-12-06T08:36:28.801Z,19.92
2022-12-06T08:37:30.298Z,14.30
2022-12-06T08:38:32.838Z,12.95
2022-12-06T08:39:35.392Z,16.38
2022-12-06T08:40:36.942Z,18.73
2022-12-06T08:41:59.065Z,17.88
2022-12-06T08:43:00.572Z,14.43
2022-12-06T08:44:04.364Z,16.98
2022-12-06T08:45:08.020Z,14.35
2022-12-06T08:46:09.643Z,15.80
2022-12-06T08:47:13.552Z,24.95
2022-12-06T08:48:15.175Z,18.38
2022-12-06T08:49:18.969Z,15.40
2022-12-06T08:50:21.535Z,20.17
2022-12-06T08:51:24.004Z,16.20
2022-12-06T08:52:26.509Z,16.75
2022-12-06T08:53:27.988Z,23.52
2022-12-06T08:54:30.847Z,16.75
2022-12-06T08:55:32.330Z,16.42
2022-12-06T08:56:34.901Z,15.68
2022-12-06T08:57:37.432Z,17.17
2022-12-06T08:58:39.909Z,14.90
2022-12-06T08:59:42.500Z,14.82
2022-12-06T09:00:44.039Z,18.70
2022-12-06T09:01:47.359Z,15.73
2022-12-06T09:02:51.258Z,19.80
2022-12-06T09:03:53.093Z,20.75
2022-12-06T09:04:55.606Z,17.42
2022-12-06T09:06:01.154Z,18.38
2022-12-06T09:07:07.410Z,18.48
2022-12-06T09:08:11.749Z,17.42
2022-12-06T09:09:16.267Z,19.48
2022-12-06T09:10:17.853Z,13.63
2022-12-06T09:11:21.096Z,20.38
2022-12-06T09:12:24.477Z,20.15
2022-12-06T09:13:26.039Z,17.52
2022-12-06T09:14:28.544Z,14.30
2022-12-06T09:15:31.420Z,13.07
2022-12-06T09:16:33.174Z,16.60
2022-12-06T09:17:36.718Z,17.95
2022-12-06T09:18:39.749Z,14.60
2022-12-06T09:19:42.241Z,17.65
2022-12-06T09:20:43.988Z,16.45
2022-12-06T09:21:46.537Z,13.95
2022-12-06T09:22:48.232Z,15.18
2022-12-06T09:23:51.557Z,18.05
2022-12-06T09:24:56.185Z,13.50
2022-12-06T09:25:58.678Z,17.77
2022-12-06T09:27:01.202Z,15.55
2022-12-06T09:28:03.252Z,21.33
2022-12-06T09:29:06.060Z,13.88
2022-12-06T09:30:08.750Z,13.77
2022-12-06T09:31:11.945Z,13.90
2022-12-06T09:32:14.592Z,16.77
2022-12-06T09:33:16.422Z,15.23
2022-12-06T09:34:20.719Z,14.70
2022-12-06T09:35:25.222Z,13.75
2022-12-06T09:36:29.926Z,20.92
2022-12-06T09:37:33.571Z,15.05
2022-12-06T09:38:37.529Z,12.45
2022-12-06T09:39:43.634Z,17.67
2022-12-06T09:40:58.081Z,15.32
2022-12-06T09:42:25.134Z,10.88
2022-12-06T09:43:43.761Z,19.05
2022-12-06T09:45:08.408Z,13.68
2022-12-06T09:46:29.311Z,12.68
2022-12-06T09:47:47.914Z,17.80
2022-12-06T09:52:05.231Z,12.57
2022-12-06T09:53:19.412Z,12.75
2022-12-06T09:54:33.757Z,13.88
2022-12-06T09:55:48.719Z,15.52
2022-12-06T09:56:54.539Z,18.67
2022-12-06T09:58:04.940Z,14.48
2022-12-06T09:59:16.271Z,15.32
2022-12-06T10:00:23.169Z,15.65
2022-12-06T10:01:38.925Z,13.52
2022-12-06T10:03:02.248Z,11.68
2022-12-06T10:07:17.177Z,14.75
2022-12-06T10:08:33.299Z,14.15
2022-12-06T10:09:45.537Z,13.20
2022-12-06T10:10:57.503Z,13.75
2022-12-06T10:12:16.325Z,24.88
2022-12-06T10:13:30.943Z,12.25
2022-12-06T10:14:48.089Z,13.35
2022-12-06T10:15:57.075Z,13.88
2022-12-06T10:17:08.701Z,12.63
2022-12-06T10:18:26.388Z,9.68
2022-12-06T10:19:39.557Z,14.35
2022-12-06T10:20:46.413Z,11.52
2022-12-06T10:22:00.788Z,9.93
2022-12-06T10:23:15.087Z,11.32
2022-12-06T10:24:39.015Z,14.05
2022-12-06T10:25:43.422Z,13.75
2022-12-06T10:26:50.484Z,13.40
2022-12-06T10:28:02.629Z,13.68
2022-12-06T10:29:16.793Z,7.85
2022-12-06T10:30:21.613Z,9.45
2022-12-06T10:31:30.411Z,8.27
2022-12-06T10:32:51.290Z,11.23
2022-12-06T10:33:57.369Z,9.90
2022-12-06T10:35:13.448Z,10.60
2022-12-06T10:36:21.737Z,8.90
2022-12-06T10:37:41.616Z,10.85
2022-12-06T10:38:49.631Z,13.02
2022-12-06T10:39:58.839Z,9.82
2022-12-06T10:41:10.787Z,9.80
2022-12-06T10:42:21.973Z,10.20
2022-12-06T10:43:30.132Z,13.25
2022-12-06T10:44:38.770Z,11.93
2022-12-06T10:46:08.437Z,9.68
2022-12-06T10:47:16.629Z,9.93
2022-12-06T10:48:33.873Z,13.52
2022-12-06T10:49:42.641Z,11.90
2022-12-06T10:50:51.541Z,9.88
2022-12-06T10:51:57.462Z,12.30
2022-12-06T10:53:04.875Z,11.05
2022-12-06T10:54:19.235Z,10.65
2022-12-06T10:55:30.550Z,8.25
2022-12-06T10:56:37.746Z,10.82
2022-12-06T10:57:45.768Z,11.00
2022-12-06T10:58:55.074Z,11.05
2022-12-06T11:00:03.666Z,12.55
2022-12-06T11:01:13.297Z,11.02
2022-12-06T11:02:29.254Z,8.45
2022-12-06T11:03:37.924Z,10.40
2022-12-06T11:04:41.934Z,7.53
2022-12-06T11:05:49.695Z,8.48
2022-12-06T11:06:56.645Z,11.98
2022-12-06T11:08:04.443Z,11.18
2022-12-06T11:09:14.856Z,6.03
2022-12-06T11:10:20.746Z,11.10
2022-12-06T11:11:29.413Z,10.95
2022-12-06T11:12:35.413Z,12.40
2022-12-06T11:13:43.289Z,9.38
2022-12-06T11:14:49.612Z,8.85
2022-12-06T11:15:56.967Z,8.45
2022-12-06T11:17:04.983Z,7.85
2022-12-06T11:18:12.114Z,10.48
2022-12-06T11:19:24.507Z,7.72
2022-12-06T11:20:30.987Z,7.88
2022-12-06T11:21:42.088Z,7.60
2022-12-06T11:22:51.296Z,8.23
2022-12-06T11:24:01.052Z,11.25
2022-12-06T11:25:11.932Z,6.78
2022-12-06T11:26:23.035Z,7.38
2022-12-06T11:27:34.504Z,11.95
2022-12-06T11:28:38.276Z,7.00
2022-12-06T11:29:42.940Z,7.10
2022-12-06T11:30:44.494Z,6.80
2022-12-06T11:31:49.957Z,7.70
2022-12-06T11:32:52.636Z,6.57
2022-12-06T11:33:55.769Z,7.90
2022-12-06T11:35:01.446Z,10.85
2022-12-06T11:36:08.421Z,9.35
2022-12-06T11:37:16.720Z,5.85
2022-12-06T11:38:23.587Z,7.90
2022-12-06T11:39:26.936Z,5.30
2022-12-06T11:40:33.194Z,7.05
2022-12-06T11:41:37.972Z,8.85
2022-12-06T11:42:41.238Z,8.40
2022-12-06T11:43:43.837Z,7.10
2022-12-06T11:44:51.854Z,6.38
2022-12-06T11:45:56.420Z,8.90
2022-12-06T11:47:01.231Z,8.70
2022-12-06T11:48:13.661Z,5.88
2022-12-06T11:49:19.929Z,7.13
2022-12-06T11:50:22.597Z,9.70
2022-12-06T11:51:26.182Z,5.97
2022-12-06T11:52:33.922Z,8.05
2022-12-06T11:53:40.947Z,10.40
2022-12-06T11:54:47.939Z,6.88
2022-12-06T11:55:54.383Z,9.52
2022-12-06T11:57:01.562Z,6.35
2022-12-06T11:58:10.403Z,7.93
2022-12-06T11:59:25.780Z,7.72
2022-12-06T12:00:30.891Z,6.18
2022-12-06T12:01:43.198Z,10.27
2022-12-06T12:02:46.569Z,6.90
2022-12-06T12:03:52.401Z,8.95
2022-12-06T12:05:07.682Z,5.57
2022-12-06T12:06:18.980Z,5.97
2022-12-06T12:07:24.751Z,11.45
2022-12-06T12:08:32.837Z,6.80
2022-12-06T12:09:45.850Z,6.28
2022-12-06T12:10:59.344Z,7.45
2022-12-06T12:12:07.491Z,7.28
2022-12-06T12:13:38.787Z,12.50
2022-12-06T12:14:46.479Z,10.00
2022-12-06T12:15:54.195Z,8.48
2022-12-06T12:17:00.566Z,12.68
2022-12-06T12:18:05.125Z,9.80
2022-12-06T12:19:32.138Z,8.02
2022-12-06T12:20:38.011Z,8.88
2022-12-06T12:21:42.623Z,8.75
2022-12-06T12:22:45.201Z,10.27
2022-12-06T12:23:48.043Z,10.05
2022-12-06T12:26:17.507Z,6.82
2022-12-06T12:27:44.922Z,8.20
2022-12-06T12:29:05.439Z,10.02
2022-12-06T12:30:23.124Z,5.95
2022-12-06T12:31:26.400Z,8.80
2022-12-06T12:32:27.993Z,7.53
2022-12-06T12:33:30.700Z,9.30
2022-12-06T12:34:33.216Z,6.68
2022-12-06T12:35:36.683Z,6.20
2022-12-06T12:36:48.859Z,7.55
2022-12-06T12:37:53.909Z,7.68
2022-12-06T12:39:00.623Z,7.50
2022-12-06T12:40:07.464Z,9.18
2022-12-06T12:41:33.888Z,9.10
2022-12-06T12:42:36.504Z,7.03
2022-12-06T12:43:40.694Z,6.22
2022-12-06T12:44:47.007Z,7.63
2022-12-06T12:48:41.733Z,6.72
2022-12-06T12:49:44.370Z,15.45
2022-12-06T12:50:53.049Z,7.50
2022-12-06T12:51:56.265Z,10.30
2022-12-06T12:53:00.481Z,7.53
2022-12-06T12:54:04.628Z,5.82
2022-12-06T12:55:17.733Z,7.28
2022-12-06T12:56:21.403Z,5.05
2022-12-06T12:57:24.334Z,11.13
2022-12-06T12:58:25.855Z,10.52
2022-12-06T12:59:36.313Z,5.80
2022-12-06T13:00:45.908Z,7.80
2022-12-06T13:01:52.624Z,7.75
2022-12-06T13:02:59.574Z,11.07
2022-12-06T13:04:07.178Z,9.70
2022-12-06T13:05:32.753Z,7.32
2022-12-06T13:06:43.686Z,6.75
2022-12-06T13:07:48.901Z,7.32
2022-12-06T13:08:51.641Z,6.75
2022-12-06T13:10:03.707Z,7.72
2022-12-06T13:11:06.200Z,8.38
2022-12-06T13:12:15.949Z,5.95
2022-12-06T13:13:22.800Z,5.43
2022-12-06T13:14:27.531Z,8.15
2022-12-06T13:15:35.436Z,12.73
2022-12-06T13:16:38.618Z,9.85
2022-12-06T13:17:44.973Z,9.80
2022-12-06T13:18:48.815Z,9.68
2022-12-06T13:19:53.648Z,8.63
2022-12-06T13:21:00.021Z,5.28
2022-12-06T13:22:04.025Z,6.60
2022-12-06T13:23:10.273Z,6.75
2022-12-06T13:24:21.385Z,5.28
2022-12-06T13:25:24.355Z,6.20
2022-12-06T13:26:29.166Z,14.32
2022-12-06T13:27:37.256Z,8.93
2022-12-06T13:28:42.808Z,5.80
2022-12-06T13:29:51.492Z,5.50
2022-12-06T13:31:04.388Z,5.18
2022-12-06T13:32:14.782Z,8.10
2022-12-06T13:33:23.559Z,5.90
2022-12-06T13:34:37.575Z,9.07
2022-12-06T13:35:46.032Z,10.75
2022-12-06T13:36:47.734Z,6.70
2022-12-06T13:37:54.772Z,6.82
2022-12-06T13:38:57.315Z,5.57
2022-12-06T13:39:59.156Z,7.93
2022-12-06T13:41:02.996Z,4.40
2022-12-06T13:42:18.368Z,6.18
2022-12-06T13:43:49.944Z,4.57
2022-12-06T13:44:55.821Z,4.53
2022-12-06T13:46:26.545Z,6.53
2022-12-06T13:47:51.250Z,5.65
2022-12-06T13:48:54.886Z,5.03
2022-12-06T13:49:58.798Z,11.85
2022-12-06T13:51:03.037Z,5.35
2022-12-06T13:52:05.539Z,4.07
2022-12-06T13:53:07.243Z,5.63
2022-12-06T13:54:36.644Z,5.60
2022-12-06T13:58:57.190Z,5.95
2022-12-06T14:00:00.045Z,4.93
2022-12-06T14:01:01.930Z,4.13
2022-12-06T14:02:52.214Z,9.13
2022-12-06T14:03:56.531Z,5.28
2022-12-06T14:04:59.447Z,5.10
2022-12-06T14:06:09.018Z,3.75
2022-12-06T14:07:32.934Z,6.65
2022-12-06T14:08:37.579Z,6.63
2022-12-06T14:09:43.728Z,9.60
2022-12-06T14:10:45.795Z,4.85
2022-12-06T14:11:48.583Z,5.00
2022-12-06T14:13:00.107Z,4.43
2022-12-06T14:14:08.631Z,5.05
2022-12-06T14:15:19.836Z,5.55
2022-12-06T14:16:29.291Z,4.70
2022-12-06T14:18:01.685Z,8.85
2022-12-06T14:19:10.965Z,4.22
2022-12-06T14:20:21.471Z,4.03
2022-12-06T14:21:27.301Z,5.00
2022-12-06T14:22:33.490Z,11.80
2022-12-06T14:23:45.673Z,8.90
2022-12-06T14:25:02.037Z,4.45
2022-12-06T14:26:21.916Z,5.68
2022-12-06T14:27:27.207Z,3.72
2022-12-06T14:28:36.209Z,5.07
2022-12-06T14:29:39.138Z,4.72
2022-12-06T14:30:43.510Z,5.60
2022-12-06T14:31:46.209Z,8.32
2022-12-06T14:32:50.759Z,7.45
2022-12-06T14:33:53.636Z,10.07
2022-12-06T14:35:04.454Z,6.95
2022-12-06T14:36:17.301Z,4.28
2022-12-06T14:37:22.260Z,7.25